Главная страница
METAR-TAF:

METAR-TAF

Аэропорты :

Ивало, Финляндия

широта: 68-37N, долгота: 027-25E, высота над уровнем моря: 147 м

Текущие метеонаблюдения

Эта сводка был подготовлена 13 минут назад, в 06:50 UTC
Ветер 7 Узел от северный, изменяющийся между северо-западный и северо-северо-восточный
Температура 7°C
Влажность 93%
Давление 995 hPa
Видимость: 5000 м
Сплошная облачность на высоте 300 фута

METAR: EFIV 270650Z 35007KT 320V030 5000 OVC003 07/06 Q0995

Время: 10:03 (07:03 UTC)

Прогноз

Эта сводка был подготовлена 1 час и 40 минут назад, в 05:23 UTC
Прогноз действительный с 27-го 06 UTC до 27-го 09 UTC
Ветер 8 Узел от северный
Видимость: 4000 м
Сплошная облачность на высоте 200 фута
небольшой морось
временами
С 27-го 06 UTC до 27-го 09 UTC
Видимость: 8000 м
Сплошная облачность на высоте 500 фута
небольшой дождь

TAF: EFIV 270523Z 2706/2709 36008KT 4000 -DZ OVC002 TEMPO 2706/2709 8000 -RA OVC005

Метеонаблюдения и прогнозы для более 4000 аэропортов (сводки METAR и TAF).

Имеющиеся станции представлены на карте желтыми и красными точками.

Чтобы увидеть название станции, наведите на нее мышь.

Затем щелкните, чтобы увидеть метеонаблюдения и метеопрогнозы.

Управление картой: чтобы увеличить масштаб, щелкните зеленые кнопки с черным крестиком; чтобы уменьшить масштаб, щелкните зеленую кнопку с тире; для просмотра соседних карт щелкайте зеленые стрелки.


METAR-TAF: